Medicine Hat, Alberta

5:17 AM MDT on September 15, 2014 (GMT -0600)
Medicine Hat | Change Station
CLOSE
Current Station
Airport
Location: Medicine Hat,
Elevation: 2352 ft
Nearby Weather Stations

Elev 2352 ft 50.02 °N, 110.72 °W | Updated 17 minutes ago

Clear
Clear
37 °F
Feels Like 34 °F
N
5
Wind Variable Wind from South

Today is forecast to be nearly the same temperature as yesterday.

Today
High -- | Low -- °F
--% Chance of Precip.
Yesterday
High -- | Low -- °F
Precip. -- in
6:58 AM 7:36 PM
Waning Gibbous, 56% visible
Pressure 30.12 in
Visibility 9.0 miles
Clouds Clear
Windchill 34 °F
Dew Point 36 °F
Humidity 93%
Rainfall 0.00 in
Snow Depth Not available.
UV 0 out of 12
Pollen Not available.
Air Quality Not available.
Flu Activity Not available.
METAR CYXH 151100Z AUTO 19004KT 9SM CLR 03/02 A3009 RMK SLP199

More Conditions Fewer Conditions

Pressure 30.12 in
Visibility 9.0 miles
Clouds Clear
Windchill 34 °F
Dew Point 36 °F
Humidity 93%
Rainfall 0.00 in
Snow Depth Not available.
UV 0 out of 12
Pollen Not available.
Air Quality Not available.
Flu Activity Not available.
METAR CYXH 151100Z AUTO 19004KT 9SM CLR 03/02 A3009 RMK SLP199

More Conditions Fewer Conditions

10-Day Weather Forecast

Almanac

Astronomy

Sep. 15, 2014 Rise Set
Actual Time 6:58 AM MDT 7:36 PM MDT
Civil Twilight 6:26 AM MDT 8:08 PM MDT
Nautical Twilight 5:47 AM MDT 8:47 PM MDT
Astronomical Twilight 5:06 AM MDT 9:28 PM MDT
Moon 11:47 PM MDT 2:36 PM MDT
Length of Visible Light 13h 42m
Length of Day
12h 37m
Tomorrow will be 3m 43s shorter.
Waning Gibbous, 56% of the Moon is Illuminated
Today
Waning Gibbous
Sep 15
Last Quarter
Sep 24
New
Oct 1
First Quarter
Oct 8
Full

Yesterday's Extremes

Country Highs Country Lows

Community

WunderPhotos

Upload Photos

1,753,429 photos uploaded!

Nearby

Snow Depth

Not available.

Earthquake Activity

City Distance Mag. Time & Date
No recent earthquake activity has been reported nearby.
Minimum magnitude displayed is 2.5.

Coastal Water Temperatures

Place Temperature
No Stations Reporting

Nearby Weather Stations